X  Schlie├čen METAR Luftfahrt Wetterdaten     LGRX Patras Araxos Agamemnon Airport
Temperatur
13°C Temperatur
9°C Taupunkt
77% Feuchtigkeit



Wind
0 KM/S
0 MPS
0 M/S
0 KTS



Kein Wind
N
Aktuelle Wetterlage

Klar Klar
Luftdruck 1015.92 (hPa) - 30 (inHg)
Sichtweite 6.2 (Meile) - 10 (Km)
Flughafen
Flughafen Code LGRX

Position : Patras Araxos Agamemnon Airport
Entfernung: 108 (Km)

Metar:
LGRX 260350Z 00000KT CAVOK 13/09 Q1016 RMK SCT200 BLU

Zeit: 26-09-2022 06:50 EEST